createdAt,value
2022-08-07T00:02:39.803Z,25.62
2022-08-07T00:05:06.198Z,25.37
2022-08-07T00:07:40.610Z,25.53
2022-08-07T00:10:27.185Z,25.38
2022-08-07T00:13:01.418Z,25.39
2022-08-07T00:15:36.217Z,25.31
2022-08-07T00:18:09.276Z,25.22
2022-08-07T00:20:50.889Z,25.15
2022-08-07T00:23:21.413Z,25.12
2022-08-07T00:26:00.445Z,25.08
2022-08-07T00:28:34.277Z,25.09
2022-08-07T00:31:12.661Z,25.09
2022-08-07T00:33:47.452Z,24.80
2022-08-07T00:36:18.339Z,25.04
2022-08-07T00:38:47.245Z,25.01
2022-08-07T00:41:27.432Z,24.96
2022-08-07T00:43:59.042Z,24.87
2022-08-07T00:46:33.935Z,24.83
2022-08-07T00:49:03.657Z,24.78
2022-08-07T00:51:58.276Z,24.75
2022-08-07T00:54:23.423Z,24.73
2022-08-07T00:56:53.303Z,24.68
2022-08-07T00:59:35.839Z,24.65
2022-08-07T01:02:14.153Z,24.52
2022-08-07T01:04:58.272Z,24.47
2022-08-07T01:07:30.251Z,24.50
2022-08-07T01:10:07.011Z,24.44
2022-08-07T01:12:54.018Z,24.32
2022-08-07T01:16:00.986Z,24.23
2022-08-07T01:18:17.858Z,24.21
2022-08-07T01:20:59.572Z,24.16
2022-08-07T01:23:39.430Z,24.13
2022-08-07T01:26:16.737Z,24.09
2022-08-07T01:28:52.271Z,24.01
2022-08-07T01:31:30.047Z,23.98
2022-08-07T01:34:14.525Z,23.98
2022-08-07T01:36:52.626Z,24.04
2022-08-07T01:39:40.938Z,24.07
2022-08-07T01:42:40.089Z,24.03
2022-08-07T01:45:23.050Z,24.02
2022-08-07T01:48:17.790Z,23.96
2022-08-07T01:50:55.555Z,23.88
2022-08-07T01:54:09.207Z,23.81
2022-08-07T01:56:29.039Z,23.60
2022-08-07T01:59:09.332Z,23.72
2022-08-07T02:02:02.701Z,23.55
2022-08-07T02:04:56.002Z,23.73
2022-08-07T02:07:36.201Z,23.74
2022-08-07T02:10:24.669Z,23.76
2022-08-07T02:12:59.604Z,23.81
2022-08-07T02:15:37.560Z,23.90
2022-08-07T02:18:07.978Z,23.98
2022-08-07T02:20:39.551Z,23.99
2022-08-07T02:23:11.799Z,23.91
2022-08-07T02:26:30.397Z,24.07
2022-08-07T02:28:36.614Z,24.07
2022-08-07T02:31:28.301Z,24.06
2022-08-07T02:34:03.689Z,24.06
2022-08-07T02:36:41.378Z,24.04
2022-08-07T02:39:43.755Z,23.95
2022-08-07T02:42:10.391Z,23.88
2022-08-07T02:44:52.159Z,23.95
2022-08-07T02:47:24.049Z,24.01
2022-08-07T02:50:05.186Z,24.02
2022-08-07T02:52:41.621Z,24.00
2022-08-07T02:55:28.371Z,23.98
2022-08-07T02:58:13.535Z,23.93
2022-08-07T03:00:47.557Z,23.95
2022-08-07T03:03:22.726Z,23.93
2022-08-07T03:05:56.469Z,23.89
2022-08-07T03:08:26.965Z,23.84
2022-08-07T03:11:01.654Z,23.75
2022-08-07T03:13:38.897Z,23.65
2022-08-07T03:16:23.016Z,23.60
2022-08-07T03:18:59.547Z,23.53
2022-08-07T03:21:33.029Z,23.45
2022-08-07T03:24:19.928Z,23.23
2022-08-07T03:26:58.272Z,23.34
2022-08-07T03:29:36.626Z,23.23
2022-08-07T03:32:13.680Z,23.17
2022-08-07T03:34:47.283Z,23.17
2022-08-07T03:37:46.018Z,22.96
2022-08-07T03:40:27.487Z,23.02
2022-08-07T03:43:02.860Z,23.04
2022-08-07T03:45:39.790Z,22.91
2022-08-07T03:48:16.594Z,22.83
2022-08-07T03:50:55.968Z,22.78
2022-08-07T03:54:01.930Z,22.74
2022-08-07T03:56:33.535Z,22.46
2022-08-07T03:59:12.821Z,22.68
2022-08-07T04:01:50.181Z,22.62
2022-08-07T04:04:24.887Z,22.59
2022-08-07T04:07:00.106Z,22.60
2022-08-07T04:09:45.543Z,22.57
2022-08-07T04:12:28.713Z,22.51
2022-08-07T04:15:01.212Z,22.52
2022-08-07T04:18:04.600Z,22.52
2022-08-07T04:20:25.546Z,22.49
2022-08-07T04:23:01.789Z,22.47
2022-08-07T04:25:39.444Z,22.42
2022-08-07T04:28:13.536Z,22.42
2022-08-07T04:30:57.060Z,22.45
2022-08-07T04:33:35.369Z,22.41
2022-08-07T04:36:09.133Z,22.30
2022-08-07T04:38:40.843Z,22.24
2022-08-07T04:41:18.210Z,22.26
2022-08-07T04:44:10.216Z,22.28
2022-08-07T04:47:07.701Z,22.14
2022-08-07T04:49:57.852Z,22.27
2022-08-07T04:52:46.761Z,22.46
2022-08-07T04:58:15.998Z,22.52
2022-08-07T04:58:47.668Z,22.54
2022-08-07T05:01:21.882Z,22.55
2022-08-07T05:04:12.378Z,22.61
2022-08-07T05:06:57.118Z,22.63
2022-08-07T05:09:46.181Z,22.62
2022-08-07T05:12:26.715Z,22.62
2022-08-07T05:15:23.650Z,22.69
2022-08-07T05:18:08.501Z,22.70
2022-08-07T05:20:43.088Z,22.49
2022-08-07T05:23:17.940Z,22.76
2022-08-07T05:26:11.773Z,22.78
2022-08-07T05:28:48.610Z,22.78
2022-08-07T05:31:35.229Z,22.84
2022-08-07T05:34:12.936Z,22.93
2022-08-07T05:36:52.772Z,23.02
2022-08-07T05:40:13.914Z,23.10
2022-08-07T05:42:36.759Z,23.21
2022-08-07T05:45:14.302Z,23.33
2022-08-07T05:48:01.114Z,23.44
2022-08-07T05:50:42.632Z,23.63
2022-08-07T05:54:13.719Z,23.78
2022-08-07T05:56:06.007Z,23.87
2022-08-07T05:58:49.236Z,23.96
2022-08-07T06:01:25.017Z,24.11
2022-08-07T06:04:01.111Z,24.24
2022-08-07T06:06:38.361Z,24.37
2022-08-07T06:09:17.211Z,24.54
2022-08-07T06:11:50.051Z,24.69
2022-08-07T06:14:28.655Z,24.88
2022-08-07T06:17:02.641Z,25.17
2022-08-07T06:19:52.390Z,25.67
2022-08-07T06:22:35.598Z,26.30
2022-08-07T06:25:26.649Z,27.03
2022-08-07T06:28:04.418Z,27.63
2022-08-07T06:30:41.429Z,28.26
2022-08-07T06:33:20.799Z,28.85
2022-08-07T06:36:12.224Z,29.37
2022-08-07T06:38:58.428Z,29.88
2022-08-07T06:42:02.656Z,30.45
2022-08-07T06:44:45.356Z,30.78
2022-08-07T06:47:22.257Z,31.26
2022-08-07T06:49:58.757Z,31.65
2022-08-07T06:52:39.332Z,31.89
2022-08-07T06:55:34.246Z,32.32
2022-08-07T06:58:11.213Z,32.74
2022-08-07T07:00:54.691Z,33.07
2022-08-07T07:03:47.492Z,33.33
2022-08-07T07:06:23.778Z,33.70
2022-08-07T07:08:53.220Z,33.95
2022-08-07T07:12:08.415Z,34.33
2022-08-07T07:14:14.404Z,34.43
2022-08-07T07:16:49.810Z,34.61
2022-08-07T07:19:55.679Z,34.91
2022-08-07T07:22:36.346Z,35.09
2022-08-07T07:26:31.169Z,35.09
2022-08-07T07:28:07.606Z,35.05
2022-08-07T07:30:57.751Z,35.37
2022-08-07T07:33:29.432Z,35.56
2022-08-07T07:36:12.890Z,35.76
2022-08-07T07:38:46.176Z,35.87
2022-08-07T07:41:19.099Z,35.97
2022-08-07T07:44:16.879Z,35.87
2022-08-07T07:46:54.241Z,35.87
2022-08-07T07:50:33.221Z,35.74
2022-08-07T07:52:22.393Z,35.60
2022-08-07T07:54:53.097Z,35.52
2022-08-07T07:57:43.668Z,35.66
2022-08-07T08:00:29.220Z,35.67
2022-08-07T08:03:05.752Z,35.63
2022-08-07T08:05:53.655Z,35.31
2022-08-07T08:08:35.585Z,34.68
2022-08-07T08:11:16.128Z,34.75
2022-08-07T08:13:54.660Z,34.78
2022-08-07T08:16:32.710Z,34.73
2022-08-07T08:19:17.312Z,34.43
2022-08-07T08:22:07.930Z,34.35
2022-08-07T08:25:25.103Z,34.33
2022-08-07T08:28:07.423Z,34.17
2022-08-07T08:30:42.865Z,34.11
2022-08-07T08:33:22.066Z,34.01
2022-08-07T08:35:52.739Z,33.99
2022-08-07T08:38:29.402Z,33.86
2022-08-07T08:41:16.888Z,33.82
2022-08-07T08:43:59.010Z,33.96
2022-08-07T08:46:40.841Z,34.07
2022-08-07T08:49:33.130Z,34.02
2022-08-07T08:52:13.993Z,33.98
2022-08-07T08:54:49.562Z,33.78
2022-08-07T08:57:30.382Z,34.05
2022-08-07T09:00:08.607Z,34.02
2022-08-07T09:02:52.408Z,34.02
2022-08-07T09:05:37.189Z,34.05
2022-08-07T09:08:24.362Z,34.00
2022-08-07T09:11:24.948Z,34.04
2022-08-07T09:14:13.001Z,34.21
2022-08-07T09:16:56.104Z,34.37
2022-08-07T09:19:53.136Z,34.42
2022-08-07T09:24:33.192Z,34.44
2022-08-07T09:25:54.388Z,34.67
2022-08-07T09:30:05.475Z,34.25
2022-08-07T09:31:38.358Z,34.75
2022-08-07T09:34:13.182Z,34.80
2022-08-07T09:37:01.544Z,34.78
2022-08-07T09:39:53.707Z,35.16
2022-08-07T09:42:42.290Z,35.32
2022-08-07T09:47:24.968Z,35.43
2022-08-07T09:48:20.192Z,35.38
2022-08-07T09:51:26.062Z,35.47
2022-08-07T09:54:02.835Z,35.67
2022-08-07T09:57:02.423Z,35.76
2022-08-07T10:00:02.659Z,35.88
2022-08-07T10:03:07.898Z,35.92
2022-08-07T10:06:08.980Z,35.98
2022-08-07T10:09:11.485Z,36.03
2022-08-07T10:12:15.202Z,36.20
2022-08-07T10:15:06.437Z,36.30
2022-08-07T10:18:01.456Z,36.33
2022-08-07T10:20:41.088Z,36.37
2022-08-07T10:24:05.379Z,36.35
2022-08-07T10:26:56.231Z,36.40
2022-08-07T10:29:51.848Z,36.49
2022-08-07T10:32:53.337Z,36.53
2022-08-07T10:35:55.051Z,36.55
2022-08-07T10:38:48.695Z,36.62
2022-08-07T10:41:52.272Z,36.77
2022-08-07T10:44:37.431Z,36.87
2022-08-07T10:47:27.076Z,36.49
2022-08-07T10:50:15.653Z,36.77
2022-08-07T10:52:56.962Z,36.85
2022-08-07T10:55:38.237Z,37.05
2022-08-07T10:58:31.866Z,37.21
2022-08-07T11:01:22.289Z,37.18
2022-08-07T11:04:23.449Z,37.12
2022-08-07T11:06:59.761Z,36.97
2022-08-07T11:10:10.033Z,37.18
2022-08-07T11:12:31.510Z,37.23
2022-08-07T11:15:09.561Z,37.32
2022-08-07T11:17:53.991Z,37.36
2022-08-07T11:20:26.054Z,37.41
2022-08-07T11:23:03.051Z,37.42
2022-08-07T11:25:42.196Z,37.29
2022-08-07T11:28:20.905Z,37.37
2022-08-07T11:30:56.423Z,37.71
2022-08-07T11:33:58.697Z,37.81
2022-08-07T11:36:39.564Z,37.79
2022-08-07T11:39:20.479Z,37.90
2022-08-07T11:42:02.381Z,38.02
2022-08-07T11:44:52.508Z,37.99
2022-08-07T11:47:55.913Z,37.91
2022-08-07T11:50:44.656Z,37.48
2022-08-07T11:53:43.371Z,38.01
2022-08-07T11:56:44.658Z,38.15
2022-08-07T12:00:11.996Z,38.10
2022-08-07T12:02:52.094Z,38.22
2022-08-07T12:05:47.662Z,38.38
2022-08-07T12:08:25.903Z,38.47
2022-08-07T12:11:20.500Z,38.62
2022-08-07T12:13:58.495Z,38.61
2022-08-07T12:16:31.011Z,38.59
2022-08-07T12:19:14.784Z,38.45
2022-08-07T12:22:38.742Z,38.45
2022-08-07T12:26:00.140Z,38.47
2022-08-07T12:28:11.106Z,38.41
2022-08-07T12:30:46.564Z,38.40
2022-08-07T12:33:28.057Z,38.39
2022-08-07T12:36:02.258Z,38.42
2022-08-07T12:38:42.540Z,38.39
2022-08-07T12:41:13.305Z,38.42
2022-08-07T12:44:01.935Z,37.75
2022-08-07T12:46:46.204Z,38.49
2022-08-07T12:49:39.938Z,38.62
2022-08-07T12:52:18.238Z,38.65
2022-08-07T12:55:03.706Z,38.66
2022-08-07T12:57:59.510Z,38.84
2022-08-07T13:00:41.752Z,38.77
2022-08-07T13:04:02.773Z,38.90
2022-08-07T13:06:54.264Z,38.89
2022-08-07T13:10:19.957Z,38.91
2022-08-07T13:12:53.230Z,38.89
2022-08-07T13:15:35.975Z,38.80
2022-08-07T13:18:26.499Z,38.69
2022-08-07T13:21:04.262Z,38.59
2022-08-07T13:24:00.578Z,38.64
2022-08-07T13:26:41.898Z,38.67
2022-08-07T13:29:24.202Z,38.66
2022-08-07T13:32:31.303Z,38.55
2022-08-07T13:34:57.971Z,38.46
2022-08-07T13:37:33.446Z,38.47
2022-08-07T13:40:41.737Z,38.45
2022-08-07T13:43:12.056Z,38.40
2022-08-07T13:46:11.711Z,38.66
2022-08-07T13:48:39.090Z,38.56
2022-08-07T13:51:27.235Z,38.47
2022-08-07T13:54:05.603Z,38.33
2022-08-07T13:56:41.240Z,38.17
2022-08-07T13:59:27.142Z,38.10
2022-08-07T14:02:07.820Z,37.97
2022-08-07T14:04:54.878Z,37.95
2022-08-07T14:07:28.130Z,38.02
2022-08-07T14:10:01.991Z,38.13
2022-08-07T14:12:54.771Z,38.13
2022-08-07T14:15:35.097Z,38.05
2022-08-07T14:18:23.857Z,37.65
2022-08-07T14:21:07.848Z,37.63
2022-08-07T14:23:59.899Z,37.86
2022-08-07T14:26:37.864Z,37.84
2022-08-07T14:30:07.463Z,37.81
2022-08-07T14:32:08.184Z,37.83
2022-08-07T14:34:45.761Z,37.67
2022-08-07T14:37:18.911Z,37.57
2022-08-07T14:40:17.709Z,37.48
2022-08-07T14:43:55.093Z,37.56
2022-08-07T14:45:46.748Z,37.53
2022-08-07T14:48:22.472Z,37.50
2022-08-07T14:51:01.084Z,37.44
2022-08-07T14:54:05.600Z,37.28
2022-08-07T14:56:30.109Z,37.30
2022-08-07T15:01:58.393Z,37.20
2022-08-07T15:04:28.828Z,37.20
2022-08-07T15:07:00.816Z,37.19
2022-08-07T15:09:59.325Z,37.17
2022-08-07T15:12:30.534Z,37.11
2022-08-07T15:15:07.764Z,37.06
2022-08-07T15:17:55.412Z,36.97
2022-08-07T15:20:33.840Z,36.92
2022-08-07T15:25:59.975Z,36.93
2022-08-07T15:34:17.193Z,36.91
2022-08-07T15:37:04.247Z,36.83
2022-08-07T15:39:57.899Z,36.70
2022-08-07T15:42:51.607Z,36.51
2022-08-07T15:45:56.726Z,36.43
2022-08-07T15:48:29.785Z,36.20
2022-08-07T15:51:09.256Z,36.26
2022-08-07T15:53:52.787Z,36.32
2022-08-07T15:56:33.409Z,36.38
2022-08-07T15:59:05.564Z,36.33
2022-08-07T16:01:39.991Z,36.27
2022-08-07T16:04:15.369Z,36.23
2022-08-07T16:06:51.416Z,36.21
2022-08-07T16:09:41.242Z,36.27
2022-08-07T16:12:29.172Z,36.30
2022-08-07T16:15:57.690Z,36.23
2022-08-07T16:18:49.411Z,36.10
2022-08-07T16:22:02.297Z,36.04
2022-08-07T16:24:04.284Z,35.92
2022-08-07T16:26:59.761Z,35.97
2022-08-07T16:30:10.843Z,35.94
2022-08-07T16:32:46.642Z,35.85
2022-08-07T16:35:51.971Z,35.57
2022-08-07T16:39:00.867Z,35.60
2022-08-07T16:42:08.751Z,35.55
2022-08-07T16:45:15.323Z,35.43
2022-08-07T16:48:53.771Z,35.43
2022-08-07T16:51:57.802Z,35.44
2022-08-07T16:54:34.546Z,35.39
2022-08-07T16:57:15.931Z,35.22
2022-08-07T17:00:15.081Z,35.21
2022-08-07T17:03:10.339Z,35.17
2022-08-07T17:06:19.003Z,35.03
2022-08-07T17:09:10.914Z,34.97
2022-08-07T17:12:04.476Z,34.88
2022-08-07T17:14:46.756Z,34.83
2022-08-07T17:17:46.553Z,34.76
2022-08-07T17:20:30.065Z,34.69
2022-08-07T17:23:08.653Z,34.56
2022-08-07T17:25:57.605Z,34.42
2022-08-07T17:28:35.712Z,34.19
2022-08-07T17:31:16.890Z,33.91
2022-08-07T17:34:15.114Z,33.86
2022-08-07T17:36:58.078Z,33.67
2022-08-07T17:39:58.813Z,33.69
2022-08-07T17:42:59.231Z,33.47
2022-08-07T17:45:35.050Z,33.30
2022-08-07T17:48:11.146Z,33.16
2022-08-07T17:50:54.571Z,33.05
2022-08-07T17:54:00.672Z,33.01
2022-08-07T17:56:28.728Z,33.00
2022-08-07T17:59:10.943Z,32.97
2022-08-07T18:01:56.621Z,32.93
2022-08-07T18:04:34.830Z,32.82
2022-08-07T18:07:20.280Z,32.47
2022-08-07T18:10:06.690Z,32.63
2022-08-07T18:13:09.899Z,32.55
2022-08-07T18:15:56.399Z,32.50
2022-08-07T18:18:45.173Z,32.47
2022-08-07T18:21:51.805Z,32.34
2022-08-07T18:24:34.473Z,32.17
2022-08-07T18:27:17.989Z,32.00
2022-08-07T18:30:31.920Z,31.90
2022-08-07T18:33:35.403Z,31.83
2022-08-07T18:36:18.101Z,31.67
2022-08-07T18:40:06.785Z,31.61
2022-08-07T18:42:18.965Z,31.44
2022-08-07T18:45:39.905Z,31.33
2022-08-07T18:48:00.863Z,31.25
2022-08-07T18:51:05.760Z,31.15
2022-08-07T18:53:54.338Z,31.09
2022-08-07T18:56:38.555Z,31.00
2022-08-07T18:59:58.483Z,30.82
2022-08-07T19:02:36.244Z,30.68
2022-08-07T19:05:15.983Z,30.56
2022-08-07T19:07:58.212Z,30.49
2022-08-07T19:10:49.621Z,30.48
2022-08-07T19:13:27.414Z,30.44
2022-08-07T19:17:00.489Z,30.28
2022-08-07T19:19:01.563Z,30.29
2022-08-07T19:21:47.592Z,30.25
2022-08-07T19:24:37.135Z,30.01
2022-08-07T19:28:29.325Z,29.74
2022-08-07T19:31:06.452Z,29.50
2022-08-07T19:33:08.305Z,29.36
2022-08-07T19:35:47.762Z,29.08
2022-08-07T19:38:21.231Z,29.43
2022-08-07T19:40:57.535Z,29.28
2022-08-07T19:43:50.357Z,29.18
2022-08-07T19:46:26.679Z,29.02
2022-08-07T19:49:04.014Z,28.92
2022-08-07T19:51:52.454Z,28.77
2022-08-07T19:54:31.101Z,28.61
2022-08-07T19:58:02.804Z,28.55
2022-08-07T20:00:01.907Z,28.45
2022-08-07T20:02:39.234Z,28.47
2022-08-07T20:05:11.337Z,28.44
2022-08-07T20:07:46.284Z,28.44
2022-08-07T20:10:36.825Z,28.10
2022-08-07T20:13:23.092Z,28.34
2022-08-07T20:15:57.891Z,28.27
2022-08-07T20:18:32.794Z,28.12
2022-08-07T20:21:14.241Z,27.82
2022-08-07T20:23:54.720Z,27.41
2022-08-07T20:26:38.521Z,27.81
2022-08-07T20:29:46.773Z,27.70
2022-08-07T20:32:04.936Z,27.62
2022-08-07T20:34:49.617Z,27.59
2022-08-07T20:37:24.871Z,27.55
2022-08-07T20:40:02.042Z,27.50
2022-08-07T20:42:36.085Z,27.42
2022-08-07T20:45:32.754Z,27.27
2022-08-07T20:47:59.062Z,27.40
2022-08-07T20:50:30.540Z,27.36
2022-08-07T20:53:00.788Z,27.16
2022-08-07T20:55:32.262Z,27.11
2022-08-07T20:58:11.837Z,26.86
2022-08-07T21:00:56.376Z,26.73
2022-08-07T21:03:27.266Z,26.62
2022-08-07T21:06:04.362Z,26.50
2022-08-07T21:09:01.133Z,26.38
2022-08-07T21:11:49.880Z,26.29
2022-08-07T21:14:33.069Z,26.02
2022-08-07T21:18:03.590Z,26.06
2022-08-07T21:20:05.679Z,25.92
2022-08-07T21:22:45.004Z,25.83
2022-08-07T21:25:29.096Z,25.82
2022-08-07T21:28:07.852Z,25.76
2022-08-07T21:30:48.759Z,25.73
2022-08-07T21:33:29.341Z,25.29
2022-08-07T21:36:31.310Z,25.62
2022-08-07T21:39:46.507Z,25.57
2022-08-07T21:42:37.482Z,25.58
2022-08-07T21:45:24.249Z,25.51
2022-08-07T21:48:03.984Z,25.44
2022-08-07T21:50:42.960Z,25.12
2022-08-07T21:53:17.731Z,25.29
2022-08-07T21:55:53.508Z,25.12
2022-08-07T21:58:36.358Z,25.27
2022-08-07T22:01:13.999Z,25.23
2022-08-07T22:03:49.111Z,25.20
2022-08-07T22:06:28.922Z,25.20
2022-08-07T22:09:06.888Z,25.18
2022-08-07T22:12:05.134Z,25.14
2022-08-07T22:14:36.823Z,25.09
2022-08-07T22:17:10.541Z,25.05
2022-08-07T22:19:57.351Z,25.04
2022-08-07T22:22:36.745Z,24.98
2022-08-07T22:25:19.688Z,24.95
2022-08-07T22:28:07.548Z,24.86
2022-08-07T22:30:58.759Z,24.79
2022-08-07T22:33:50.970Z,24.71
2022-08-07T22:36:38.555Z,24.63
2022-08-07T22:39:23.476Z,24.50
2022-08-07T22:42:10.540Z,24.26
2022-08-07T22:44:58.814Z,24.36
2022-08-07T22:47:52.546Z,24.32
2022-08-07T22:50:40.950Z,24.26
2022-08-07T22:54:06.799Z,24.15
2022-08-07T22:56:29.528Z,24.11
2022-08-07T22:59:32.718Z,24.10
2022-08-07T23:02:11.499Z,24.06
2022-08-07T23:06:08.709Z,24.01
2022-08-07T23:07:58.760Z,23.90
2022-08-07T23:10:42.858Z,23.86
2022-08-07T23:13:48.991Z,23.80
2022-08-07T23:16:55.026Z,23.69
2022-08-07T23:19:58.060Z,23.65
2022-08-07T23:22:45.401Z,23.54
2022-08-07T23:25:28.407Z,23.46
2022-08-07T23:28:22.401Z,23.46
2022-08-07T23:31:42.562Z,23.40
2022-08-07T23:34:38.183Z,23.29
2022-08-07T23:37:31.030Z,23.24
2022-08-07T23:40:16.075Z,23.20
2022-08-07T23:43:16.698Z,23.17
2022-08-07T23:46:02.604Z,23.14
2022-08-07T23:49:02.481Z,23.14
2022-08-07T23:53:00.607Z,23.12
2022-08-07T23:54:44.427Z,22.92
2022-08-07T23:57:25.114Z,23.01
